ENBL/FDE METAR and TAF weather

Enter ICAO airport designator
Station Type Date Time Source
ENBL METAR 2018/12/10 16:20 UTC NOAA

ENBL 101620Z 34007KT 9999 VCSH FEW013 SCT033 01/M01 Q1014


Station Type Date Time Source
ENBL Decoded METAR 2018/12/10 16:20 UTC NOAA

Forde / Bringeland, Norway (ENBL) 61-27N 005-52E
Dec 10, 2018 - 11:20 AM EST / 2018.12.10 1620 UTC
Wind: from the NNW (340 degrees) at 8 MPH (7 KT):0
Visibility: greater than 7 mile(s):0
Sky conditions: partly cloudy
Weather: showers in the vicinity
Temperature: 33 F (1 C)
Windchill: 26 F (-3 C):1
Dew Point: 30 F (-1 C)
Relative Humidity: 86%
Pressure (altimeter): 29.94 in. Hg (1014 hPa)
ob: ENBL 101620Z 34007KT 9999 VCSH FEW013 SCT033 01/M01 Q1014
cycle: 16

Station Type Date Time Source
ENBL TAF UTC NOAA

Error!


Example: see airport list